createdAt,value
2018-11-10T00:02:18.954Z,83.07
2018-11-10T00:04:46.468Z,82.67
2018-11-10T00:07:13.998Z,82.91
2018-11-10T00:09:41.539Z,82.70
2018-11-10T00:12:09.011Z,82.98
2018-11-10T00:14:36.563Z,83.21
2018-11-10T00:17:04.439Z,83.24
2018-11-10T00:19:32.033Z,83.37
2018-11-10T00:21:59.666Z,83.12
2018-11-10T00:24:27.321Z,83.56
2018-11-10T00:26:54.876Z,83.67
2018-11-10T00:29:22.446Z,83.54
2018-11-10T00:31:50.207Z,83.26
2018-11-10T00:34:17.763Z,83.24
2018-11-10T00:36:45.445Z,82.70
2018-11-10T00:39:12.964Z,82.80
2018-11-10T00:41:40.435Z,83.11
2018-11-10T00:44:08.134Z,83.32
2018-11-10T00:46:35.736Z,83.64
2018-11-10T00:49:03.318Z,83.59
2018-11-10T00:51:30.897Z,83.35
2018-11-10T00:53:58.330Z,83.21
2018-11-10T00:56:25.807Z,83.06
2018-11-10T00:58:53.499Z,83.33
2018-11-10T01:01:21.084Z,83.31
2018-11-10T01:03:48.524Z,83.46
2018-11-10T01:06:16.271Z,83.48
2018-11-10T01:08:43.681Z,83.96
2018-11-10T01:11:11.107Z,83.75
2018-11-10T01:13:38.715Z,83.85
2018-11-10T01:16:06.356Z,84.00
2018-11-10T01:18:33.833Z,84.34
2018-11-10T01:21:01.664Z,84.13
2018-11-10T01:23:29.297Z,83.57
2018-11-10T01:25:56.729Z,83.95
2018-11-10T01:28:24.201Z,84.46
2018-11-10T01:30:51.624Z,84.48
2018-11-10T01:33:19.058Z,84.56
2018-11-10T01:35:46.663Z,84.28
2018-11-10T01:38:14.113Z,84.12
2018-11-10T01:40:41.758Z,84.11
2018-11-10T01:43:09.290Z,84.02
2018-11-10T01:45:36.752Z,83.75
2018-11-10T01:48:04.861Z,84.27
2018-11-10T01:50:32.386Z,84.57
2018-11-10T01:52:59.801Z,85.03
2018-11-10T01:55:27.214Z,85.33
2018-11-10T01:57:54.784Z,85.13
2018-11-10T02:00:22.271Z,85.08
2018-11-10T02:02:49.879Z,84.70
2018-11-10T02:05:17.754Z,84.71
2018-11-10T02:07:45.209Z,84.20
2018-11-10T02:10:13.230Z,83.68
2018-11-10T02:12:41.366Z,83.77
2018-11-10T02:15:12.601Z,83.67
2018-11-10T02:17:40.121Z,83.29
2018-11-10T02:20:08.818Z,82.63
2018-11-10T02:22:36.493Z,81.74
2018-11-10T02:25:04.082Z,81.99
2018-11-10T02:27:31.855Z,82.27
2018-11-10T02:29:59.509Z,81.81
2018-11-10T02:32:27.017Z,81.59
2018-11-10T02:34:54.449Z,81.42
2018-11-10T02:37:21.945Z,81.28
2018-11-10T02:39:49.449Z,81.12
2018-11-10T02:42:16.969Z,80.80
2018-11-10T02:44:44.461Z,80.89
2018-11-10T02:47:11.927Z,80.70
2018-11-10T02:49:39.527Z,80.71
2018-11-10T02:52:07.101Z,80.16
2018-11-10T02:54:34.573Z,80.35
2018-11-10T02:57:02.181Z,80.30
2018-11-10T02:59:29.703Z,80.21
2018-11-10T03:01:57.155Z,79.34
2018-11-10T03:04:24.673Z,79.55
2018-11-10T03:06:52.119Z,79.67
2018-11-10T03:09:19.587Z,79.85
2018-11-10T03:11:47.136Z,79.66
2018-11-10T03:14:14.554Z,79.70
2018-11-10T03:16:42.175Z,79.32
2018-11-10T03:19:10.103Z,79.25
2018-11-10T03:21:38.133Z,78.91
2018-11-10T03:24:06.003Z,79.28
2018-11-10T03:26:33.837Z,79.21
2018-11-10T03:29:01.670Z,79.16
2018-11-10T03:31:29.629Z,79.00
2018-11-10T03:33:57.413Z,78.94
2018-11-10T03:36:25.115Z,78.62
2018-11-10T03:38:52.855Z,78.41
2018-11-10T03:41:20.789Z,78.55
2018-11-10T03:43:48.501Z,78.41
2018-11-10T03:46:16.095Z,78.34
2018-11-10T03:48:43.744Z,78.08
2018-11-10T03:51:11.536Z,77.79
2018-11-10T03:53:39.686Z,78.29
2018-11-10T03:56:07.663Z,78.45
2018-11-10T03:58:35.320Z,78.33
2018-11-10T04:01:03.232Z,78.69
2018-11-10T04:03:30.650Z,78.42
2018-11-10T04:05:58.132Z,78.54
2018-11-10T04:08:25.653Z,77.88
2018-11-10T04:10:53.150Z,77.55
2018-11-10T04:13:20.621Z,77.85
2018-11-10T04:15:48.085Z,77.75
2018-11-10T04:18:15.851Z,78.12
2018-11-10T04:20:43.558Z,78.32
2018-11-10T04:23:11.099Z,78.00
2018-11-10T04:25:38.581Z,77.90
2018-11-10T04:28:06.038Z,77.74
2018-11-10T04:30:33.577Z,76.88
2018-11-10T04:33:01.022Z,76.87
2018-11-10T04:35:28.446Z,76.72
2018-11-10T04:37:56.046Z,77.41
2018-11-10T04:40:23.595Z,77.90
2018-11-10T04:42:51.134Z,78.38
2018-11-10T04:45:18.701Z,78.68
2018-11-10T04:47:46.145Z,78.81
2018-11-10T04:50:13.574Z,78.90
2018-11-10T04:52:41.463Z,78.10
2018-11-10T04:55:10.095Z,78.13
2018-11-10T04:57:37.839Z,78.34
2018-11-10T05:00:07.540Z,78.00
2018-11-10T05:02:35.042Z,77.43
2018-11-10T05:05:02.487Z,77.28
2018-11-10T05:07:29.930Z,77.08
2018-11-10T05:09:57.343Z,76.68
2018-11-10T05:12:24.940Z,76.89
2018-11-10T05:14:52.438Z,77.27
2018-11-10T05:17:19.954Z,77.20
2018-11-10T05:19:47.394Z,77.64
2018-11-10T05:22:15.006Z,77.82
2018-11-10T05:24:42.550Z,77.74
2018-11-10T05:27:10.116Z,77.65
2018-11-10T05:29:37.578Z,77.87
2018-11-10T05:32:05.272Z,78.38
2018-11-10T05:34:32.754Z,78.07
2018-11-10T05:37:00.238Z,77.71
2018-11-10T05:39:27.722Z,78.15
2018-11-10T05:41:55.246Z,77.68
2018-11-10T05:44:22.688Z,77.39
2018-11-10T05:46:50.392Z,77.46
2018-11-10T05:49:17.906Z,77.89
2018-11-10T05:51:45.446Z,77.90
2018-11-10T05:54:13.022Z,78.63
2018-11-10T05:56:40.481Z,78.83
2018-11-10T05:59:07.884Z,78.90
2018-11-10T06:01:35.434Z,78.94
2018-11-10T06:04:03.048Z,78.90
2018-11-10T06:06:30.614Z,79.03
2018-11-10T06:08:58.170Z,79.99
2018-11-10T06:11:25.626Z,82.09
2018-11-10T06:13:53.046Z,83.91
2018-11-10T06:16:20.542Z,85.11
2018-11-10T06:18:48.203Z,85.95
2018-11-10T06:21:15.547Z,86.52
2018-11-10T06:23:43.125Z,86.89
2018-11-10T06:26:10.675Z,87.20
2018-11-10T06:28:38.116Z,87.21
2018-11-10T06:31:06.874Z,87.44
2018-11-10T06:33:34.319Z,87.77
2018-11-10T06:36:01.831Z,87.83
2018-11-10T06:38:29.290Z,86.90
2018-11-10T06:40:56.789Z,87.25
2018-11-10T06:43:24.200Z,87.15
2018-11-10T06:45:51.770Z,87.69
2018-11-10T06:48:19.226Z,88.07
2018-11-10T06:50:46.671Z,87.69
2018-11-10T06:53:14.274Z,87.39
2018-11-10T06:55:41.730Z,87.50
2018-11-10T06:58:09.191Z,87.81
2018-11-10T07:00:36.702Z,88.12
2018-11-10T07:03:04.386Z,88.41
2018-11-10T07:05:31.923Z,88.14
2018-11-10T07:07:59.371Z,87.89
2018-11-10T07:10:26.858Z,87.93
2018-11-10T07:12:54.266Z,87.81
2018-11-10T07:15:21.900Z,87.66
2018-11-10T07:17:49.478Z,87.10
2018-11-10T07:20:16.882Z,87.22
2018-11-10T07:22:44.315Z,87.24
2018-11-10T07:25:11.818Z,86.76
2018-11-10T07:27:39.218Z,86.59
2018-11-10T07:30:10.695Z,87.03
2018-11-10T07:32:40.111Z,87.25
2018-11-10T07:35:08.483Z,86.57
2018-11-10T07:37:36.041Z,86.10
2018-11-10T07:40:03.883Z,85.79
2018-11-10T07:42:31.461Z,85.57
2018-11-10T07:44:58.932Z,85.38
2018-11-10T07:47:26.442Z,84.92
2018-11-10T07:49:53.909Z,84.98
2018-11-10T07:52:21.482Z,85.03
2018-11-10T07:54:48.940Z,84.58
2018-11-10T07:57:16.345Z,84.68
2018-11-10T07:59:43.991Z,84.60
2018-11-10T08:02:11.554Z,84.71
2018-11-10T08:04:39.346Z,84.24
2018-11-10T08:07:07.246Z,84.04
2018-11-10T08:09:34.842Z,83.05
2018-11-10T08:12:02.519Z,82.94
2018-11-10T08:14:29.899Z,83.20
2018-11-10T08:16:57.437Z,83.33
2018-11-10T08:19:24.889Z,83.47
2018-11-10T08:21:52.550Z,82.72
2018-11-10T08:24:19.995Z,81.57
2018-11-10T08:26:47.538Z,81.89
2018-11-10T08:29:15.002Z,81.89
2018-11-10T08:31:42.441Z,81.92
2018-11-10T08:34:09.944Z,81.00
2018-11-10T08:36:37.489Z,80.85
2018-11-10T08:39:07.126Z,81.25
2018-11-10T08:41:35.048Z,81.74
2018-11-10T08:44:02.694Z,81.60
2018-11-10T08:46:30.253Z,80.65
2018-11-10T08:48:57.797Z,80.21
2018-11-10T08:51:25.731Z,79.69
2018-11-10T08:53:53.432Z,80.30
2018-11-10T08:56:20.970Z,79.91
2018-11-10T08:58:48.478Z,80.09
2018-11-10T09:01:15.912Z,80.20
2018-11-10T09:03:44.710Z,79.93
2018-11-10T09:06:12.515Z,79.33
2018-11-10T09:08:40.334Z,79.36
2018-11-10T09:11:08.057Z,79.85
2018-11-10T09:13:35.965Z,79.31
2018-11-10T09:16:03.891Z,79.19
2018-11-10T09:18:31.743Z,79.10
2018-11-10T09:20:59.688Z,78.73
2018-11-10T09:23:27.475Z,78.53
2018-11-10T09:25:55.239Z,77.75
2018-11-10T09:28:22.989Z,76.81
2018-11-10T09:30:50.640Z,76.15
2018-11-10T09:33:18.195Z,74.96
2018-11-10T09:35:45.721Z,74.90
2018-11-10T09:38:13.439Z,73.60
2018-11-10T09:40:41.015Z,73.05
2018-11-10T09:43:08.648Z,72.35
2018-11-10T09:45:36.189Z,71.77
2018-11-10T09:48:03.713Z,71.99
2018-11-10T09:50:31.536Z,71.23
2018-11-10T09:52:59.299Z,71.47
2018-11-10T09:55:27.167Z,71.32
2018-11-10T09:57:55.104Z,71.55
2018-11-10T10:00:22.890Z,70.68
2018-11-10T10:02:51.090Z,69.53
2018-11-10T10:05:18.286Z,69.97
2018-11-10T10:07:46.151Z,69.56
2018-11-10T10:10:15.410Z,69.26
2018-11-10T10:12:43.478Z,66.35
2018-11-10T10:15:13.710Z,66.61
2018-11-10T10:17:42.078Z,66.70
2018-11-10T10:20:12.346Z,65.68
2018-11-10T10:22:39.812Z,66.04
2018-11-10T10:25:08.987Z,65.68
2018-11-10T10:27:36.773Z,63.95
2018-11-10T10:30:06.741Z,63.58
2018-11-10T10:32:34.233Z,64.16
2018-11-10T10:35:01.861Z,63.65
2018-11-10T10:37:29.265Z,64.24
2018-11-10T10:39:57.173Z,64.35
2018-11-10T10:42:24.805Z,64.93
2018-11-10T10:44:52.223Z,64.52
2018-11-10T10:47:19.703Z,64.06
2018-11-10T10:49:47.205Z,64.39
2018-11-10T10:52:14.777Z,64.23
2018-11-10T10:54:42.207Z,64.18
2018-11-10T10:57:09.858Z,63.65
2018-11-10T10:59:37.319Z,63.03
2018-11-10T11:02:10.582Z,63.91
2018-11-10T11:04:48.489Z,63.32
2018-11-10T11:07:17.171Z,62.13
2018-11-10T11:09:45.362Z,62.20
2018-11-10T11:12:12.802Z,62.26
2018-11-10T11:14:40.687Z,61.08
2018-11-10T11:17:08.190Z,61.30
2018-11-10T11:19:35.621Z,60.23
2018-11-10T11:22:03.393Z,60.68
2018-11-10T11:24:30.696Z,60.45
2018-11-10T11:26:58.338Z,60.86
2018-11-10T11:29:25.936Z,60.63
2018-11-10T11:31:53.406Z,61.00
2018-11-10T11:34:20.930Z,60.98
2018-11-10T11:36:48.462Z,61.99
2018-11-10T11:39:15.917Z,61.34
2018-11-10T11:41:43.535Z,60.70
2018-11-10T11:44:10.981Z,60.83
2018-11-10T11:46:38.440Z,61.30
2018-11-10T11:49:09.068Z,60.99
2018-11-10T11:51:36.889Z,61.56
2018-11-10T11:54:04.574Z,61.16
2018-11-10T11:56:32.344Z,61.02
2018-11-10T11:58:59.908Z,60.42
2018-11-10T12:01:27.413Z,60.12
2018-11-10T12:03:54.852Z,59.00
2018-11-10T12:06:22.415Z,58.88
2018-11-10T12:08:56.535Z,58.44
2018-11-10T12:11:24.067Z,58.11
2018-11-10T12:13:51.487Z,57.97
2018-11-10T12:16:27.198Z,58.41
2018-11-10T12:18:47.585Z,59.07
2018-11-10T12:21:15.063Z,58.66
2018-11-10T12:23:42.499Z,58.95
2018-11-10T12:26:10.136Z,59.67
2018-11-10T12:28:37.665Z,59.28
2018-11-10T12:31:05.490Z,59.04
2018-11-10T12:33:33.247Z,58.89
2018-11-10T12:36:00.709Z,59.70
2018-11-10T12:38:28.318Z,59.57
2018-11-10T12:40:55.851Z,59.43
2018-11-10T12:43:23.314Z,59.44
2018-11-10T12:45:50.785Z,58.67
2018-11-10T12:48:18.269Z,58.51
2018-11-10T12:50:45.832Z,59.05
2018-11-10T12:53:13.257Z,57.73
2018-11-10T12:55:40.855Z,57.85
2018-11-10T12:58:08.308Z,58.66
2018-11-10T13:00:35.840Z,57.82
2018-11-10T13:03:03.474Z,57.95
2018-11-10T13:05:31.166Z,58.19
2018-11-10T13:07:58.728Z,58.46
2018-11-10T13:10:26.193Z,58.39
2018-11-10T13:12:53.749Z,59.22
2018-11-10T13:15:21.219Z,58.53
2018-11-10T13:17:48.773Z,58.75
2018-11-10T13:20:16.302Z,59.13
2018-11-10T13:22:43.769Z,59.65
2018-11-10T13:25:12.459Z,60.13
2018-11-10T13:27:39.954Z,59.64
2018-11-10T13:30:08.839Z,59.77
2018-11-10T13:32:36.742Z,60.98
2018-11-10T13:35:05.826Z,60.97
2018-11-10T13:37:33.384Z,60.91
2018-11-10T13:40:00.899Z,61.62
2018-11-10T13:42:28.403Z,61.84
2018-11-10T13:44:55.862Z,62.41
2018-11-10T13:47:23.456Z,62.45
2018-11-10T13:49:50.906Z,61.98
2018-11-10T13:52:18.735Z,62.34
2018-11-10T13:54:46.073Z,61.48
2018-11-10T13:57:13.584Z,60.99
2018-11-10T13:59:41.402Z,61.68
2018-11-10T14:02:09.024Z,62.40
2018-11-10T14:04:36.590Z,62.46
2018-11-10T14:07:04.338Z,63.16
2018-11-10T14:09:31.804Z,63.97
2018-11-10T14:11:59.262Z,63.84
2018-11-10T14:14:26.859Z,64.28
2018-11-10T14:16:54.447Z,65.11
2018-11-10T14:19:21.912Z,65.53
2018-11-10T14:21:49.966Z,66.07
2018-11-10T14:24:17.486Z,66.43
2018-11-10T14:26:44.978Z,67.01
2018-11-10T14:29:12.508Z,67.05
2018-11-10T14:31:40.054Z,67.84
2018-11-10T14:34:07.490Z,67.96
2018-11-10T14:36:34.998Z,67.98
2018-11-10T14:39:03.315Z,68.58
2018-11-10T14:41:30.778Z,69.21
2018-11-10T14:43:58.197Z,69.79
2018-11-10T14:46:25.856Z,69.69
2018-11-10T14:48:53.259Z,69.23
2018-11-10T14:51:20.817Z,69.36
2018-11-10T14:53:48.264Z,70.03
2018-11-10T14:56:15.734Z,70.65
2018-11-10T14:58:43.270Z,71.60
2018-11-10T15:01:10.695Z,72.30
2018-11-10T15:03:38.230Z,72.84
2018-11-10T15:06:05.709Z,73.78
2018-11-10T15:08:33.290Z,73.91
2018-11-10T15:11:00.886Z,74.62
2018-11-10T15:13:28.368Z,75.57
2018-11-10T15:15:55.882Z,76.07
2018-11-10T15:18:23.439Z,77.14
2018-11-10T15:20:50.960Z,78.19
2018-11-10T15:23:18.530Z,78.80
2018-11-10T15:25:45.988Z,78.81
2018-11-10T15:28:13.458Z,79.10
2018-11-10T15:30:41.104Z,79.09
2018-11-10T15:33:08.534Z,78.85
2018-11-10T15:35:35.983Z,79.10
2018-11-10T15:38:03.782Z,79.04
2018-11-10T15:40:31.278Z,78.19
2018-11-10T15:42:58.712Z,78.02
2018-11-10T15:45:26.212Z,77.58
2018-11-10T15:47:53.678Z,77.29
2018-11-10T15:50:21.224Z,76.19
2018-11-10T15:52:48.690Z,74.78
2018-11-10T15:55:16.250Z,75.37
2018-11-10T15:57:43.699Z,75.34
2018-11-10T16:00:13.195Z,74.80
2018-11-10T16:02:41.303Z,75.00
2018-11-10T16:05:09.670Z,74.06
2018-11-10T16:07:37.506Z,73.38
2018-11-10T16:10:05.561Z,73.39
2018-11-10T16:12:33.119Z,73.33
2018-11-10T16:15:00.773Z,73.51
2018-11-10T16:17:28.302Z,73.42
2018-11-10T16:19:55.859Z,73.71
2018-11-10T16:22:23.388Z,73.93
2018-11-10T16:24:51.299Z,73.95
2018-11-10T16:27:19.057Z,74.68
2018-11-10T16:29:46.797Z,75.02
2018-11-10T16:32:14.401Z,75.36
2018-11-10T16:34:41.843Z,75.95
2018-11-10T16:37:09.626Z,76.38
2018-11-10T16:39:37.069Z,76.61
2018-11-10T16:42:05.304Z,76.46
2018-11-10T16:44:32.854Z,76.21
2018-11-10T16:47:00.394Z,76.54
2018-11-10T16:49:27.916Z,76.74
2018-11-10T16:51:55.725Z,77.07
2018-11-10T16:54:23.231Z,77.20
2018-11-10T16:56:50.777Z,77.32
2018-11-10T16:59:18.243Z,76.30
2018-11-10T17:01:45.951Z,75.97
2018-11-10T17:04:13.785Z,75.73
2018-11-10T17:06:41.377Z,75.81
2018-11-10T17:09:10.842Z,76.14
2018-11-10T17:11:38.444Z,76.01
2018-11-10T17:14:06.618Z,75.67
2018-11-10T17:16:34.354Z,75.54
2018-11-10T17:19:01.980Z,75.97
2018-11-10T17:21:29.531Z,75.93
2018-11-10T17:23:56.984Z,76.39
2018-11-10T17:26:24.574Z,76.47
2018-11-10T17:28:52.044Z,76.57
2018-11-10T17:31:19.694Z,76.60
2018-11-10T17:33:47.152Z,75.75
2018-11-10T17:36:14.674Z,75.83
2018-11-10T17:38:42.296Z,75.32
2018-11-10T17:41:09.810Z,75.40
2018-11-10T17:43:37.282Z,75.39
2018-11-10T17:46:05.528Z,75.52
2018-11-10T17:48:33.029Z,75.04
2018-11-10T17:51:00.502Z,75.49
2018-11-10T17:53:28.249Z,75.53
2018-11-10T17:55:55.734Z,74.71
2018-11-10T17:58:23.382Z,74.14
2018-11-10T18:00:50.826Z,74.35
2018-11-10T18:03:18.228Z,74.14
2018-11-10T18:05:45.738Z,74.39
2018-11-10T18:08:13.216Z,74.29
2018-11-10T18:10:40.636Z,74.83
2018-11-10T18:13:08.295Z,74.97
2018-11-10T18:15:35.698Z,74.91
2018-11-10T18:18:03.209Z,75.16
2018-11-10T18:20:30.738Z,75.11
2018-11-10T18:22:58.205Z,75.12
2018-11-10T18:25:25.925Z,75.06
2018-11-10T18:27:53.374Z,74.34
2018-11-10T18:30:20.806Z,74.24
2018-11-10T18:32:48.344Z,74.69
2018-11-10T18:35:15.858Z,74.47
2018-11-10T18:37:43.411Z,74.68
2018-11-10T18:40:11.059Z,75.08
2018-11-10T18:42:38.549Z,75.54
2018-11-10T18:45:07.118Z,75.25
2018-11-10T18:47:34.662Z,75.62
2018-11-10T18:50:02.306Z,76.21
2018-11-10T18:52:30.023Z,75.51
2018-11-10T18:54:57.452Z,75.94
2018-11-10T18:57:25.136Z,76.20
2018-11-10T18:59:52.686Z,76.80
2018-11-10T19:02:20.204Z,76.78
2018-11-10T19:04:48.061Z,78.17
2018-11-10T19:07:15.507Z,78.11
2018-11-10T19:09:43.125Z,78.96
2018-11-10T19:12:10.826Z,79.78
2018-11-10T19:14:38.368Z,80.12
2018-11-10T19:17:05.894Z,80.76
2018-11-10T19:19:33.578Z,79.86
2018-11-10T19:22:01.119Z,80.01
2018-11-10T19:24:28.794Z,80.30
2018-11-10T19:26:56.326Z,80.55
2018-11-10T19:29:23.889Z,81.52
2018-11-10T19:31:51.497Z,81.05
2018-11-10T19:34:18.978Z,80.98
2018-11-10T19:36:46.536Z,81.47
2018-11-10T19:39:14.057Z,81.48
2018-11-10T19:41:41.874Z,81.36
2018-11-10T19:44:09.987Z,81.40
2018-11-10T19:46:38.350Z,80.69
2018-11-10T19:49:05.959Z,80.29
2018-11-10T19:51:33.927Z,80.61
2018-11-10T19:54:01.249Z,81.04
2018-11-10T19:56:28.937Z,80.96
2018-11-10T19:58:56.365Z,81.25
2018-11-10T20:01:23.826Z,81.50
2018-11-10T20:03:52.059Z,81.75
2018-11-10T20:06:19.543Z,81.18
2018-11-10T20:08:47.088Z,81.34
2018-11-10T20:11:14.714Z,81.17
2018-11-10T20:13:42.352Z,81.15
2018-11-10T20:16:09.891Z,81.16
2018-11-10T20:18:37.407Z,81.01
2018-11-10T20:21:04.919Z,80.97
2018-11-10T20:23:32.349Z,80.43
2018-11-10T20:25:59.983Z,80.46
2018-11-10T20:28:27.639Z,79.06
2018-11-10T20:30:55.223Z,78.65
2018-11-10T20:33:22.815Z,78.11
2018-11-10T20:35:50.365Z,78.22
2018-11-10T20:38:17.842Z,78.82
2018-11-10T20:40:45.509Z,78.83
2018-11-10T20:43:13.061Z,79.66
2018-11-10T20:45:40.601Z,80.03
2018-11-10T20:48:08.125Z,80.38
2018-11-10T20:50:35.927Z,80.40
2018-11-10T20:53:03.471Z,80.45
2018-11-10T20:55:31.349Z,80.30
2018-11-10T20:57:58.927Z,81.27
2018-11-10T21:00:26.554Z,81.66
2018-11-10T21:02:54.186Z,82.47
2018-11-10T21:05:21.691Z,82.99
2018-11-10T21:07:49.239Z,83.74
2018-11-10T21:10:18.329Z,83.97
2018-11-10T21:12:46.651Z,83.73
2018-11-10T21:15:14.911Z,84.22
2018-11-10T21:17:42.748Z,84.17
2018-11-10T21:20:11.089Z,84.42
2018-11-10T21:22:38.622Z,84.98
2018-11-10T21:25:07.944Z,85.10
2018-11-10T21:27:35.564Z,85.29
2018-11-10T21:30:03.651Z,84.90
2018-11-10T21:32:31.312Z,84.56
2018-11-10T21:34:58.799Z,84.75
2018-11-10T21:37:26.414Z,85.07
2018-11-10T21:39:53.956Z,85.11
2018-11-10T21:42:21.406Z,85.32
2018-11-10T21:44:48.914Z,85.14
2018-11-10T21:47:16.518Z,85.19
2018-11-10T21:49:44.022Z,85.25
2018-11-10T21:52:11.483Z,84.18
2018-11-10T21:54:39.066Z,84.47
2018-11-10T21:57:06.612Z,84.92
2018-11-10T21:59:34.104Z,84.63
2018-11-10T22:02:01.873Z,84.72
2018-11-10T22:04:29.325Z,84.95
2018-11-10T22:06:56.869Z,84.77
2018-11-10T22:09:24.886Z,84.94
2018-11-10T22:11:52.279Z,84.46
2018-11-10T22:14:19.752Z,84.70
2018-11-10T22:16:47.401Z,84.54
2018-11-10T22:19:15.822Z,84.23
2018-11-10T22:21:43.272Z,83.93
2018-11-10T22:24:10.823Z,84.39
2018-11-10T22:26:38.310Z,84.39
2018-11-10T22:29:05.754Z,84.36
2018-11-10T22:31:33.499Z,84.67
2018-11-10T22:34:00.967Z,85.19
2018-11-10T22:36:28.504Z,84.67
2018-11-10T22:38:56.000Z,84.72
2018-11-10T22:41:23.548Z,84.10
2018-11-10T22:43:51.138Z,84.32
2018-11-10T22:46:18.649Z,83.95
2018-11-10T22:48:46.166Z,84.55
2018-11-10T22:51:13.630Z,85.24
2018-11-10T22:53:41.225Z,85.68
2018-11-10T22:56:08.846Z,85.61
2018-11-10T22:58:36.515Z,86.16
2018-11-10T23:01:06.809Z,86.37
2018-11-10T23:03:35.283Z,86.47
2018-11-10T23:06:10.166Z,86.64
2018-11-10T23:08:37.806Z,86.50
2018-11-10T23:11:05.273Z,86.70
2018-11-10T23:13:33.500Z,87.07
2018-11-10T23:16:01.020Z,86.85
2018-11-10T23:18:28.513Z,87.02
2018-11-10T23:20:56.022Z,86.77
2018-11-10T23:23:23.528Z,86.71
2018-11-10T23:25:50.983Z,86.50
2018-11-10T23:28:18.688Z,86.23
2018-11-10T23:30:46.271Z,85.84
2018-11-10T23:33:13.766Z,85.91
2018-11-10T23:35:41.337Z,85.69
2018-11-10T23:38:08.802Z,86.29
2018-11-10T23:40:36.421Z,86.68
2018-11-10T23:43:04.029Z,86.41
2018-11-10T23:45:31.485Z,86.58
2018-11-10T23:47:58.985Z,87.10
2018-11-10T23:50:26.581Z,87.32
2018-11-10T23:52:54.360Z,87.09
2018-11-10T23:55:21.939Z,87.23
2018-11-10T23:57:49.414Z,86.63
